Time;durP1;ratioP1;P1;durP2;ratioP2;P2;SDS_P1;SDS_P2;PMS_P1;PMS_P2;Temp;Humidity;BMP_temperature;BMP_pressure;BME280_temperature;BME280_humidity;BME280_pressure;Samples;Min_cycle;Max_cycle;Signal;HPM_P1;HPM_P2
2022/09/10 00:01:18;;;;;;;3.60;0.25;;;23.00;92.20;;;;;;4899598;29;20480;-73
2022/09/10 00:03:48;;;;;;;0.17;0.10;;;22.30;93.90;;;;;;4897514;29;20048;-76
2022/09/10 00:06:19;;;;;;;0.38;0.05;;;21.70;95.20;;;;;;4897982;29;20033;-75
2022/09/10 00:08:48;;;;;;;0.88;0.15;;;21.40;96.20;;;;;;4902523;29;20735;-75
2022/09/10 00:11:15;;;;;;;0.75;0.40;;;21.00;95.90;;;;;;4903707;29;20378;-77
2022/09/10 00:13:46;;;;;;;0.13;0.10;;;20.90;95.70;;;;;;4914429;29;20040;-76
2022/09/10 00:16:17;;;;;;;0.68;0.10;;;21.70;95.00;;;;;;4907804;29;20054;-76
2022/09/10 00:18:47;;;;;;;0.73;0.10;;;23.00;92.60;;;;;;4897243;29;20123;-75
2022/09/10 00:21:19;;;;;;;1.70;0.25;;;24.00;92.90;;;;;;4903629;29;20036;-75
2022/09/10 00:23:47;;;;;;;0.85;0.17;;;24.50;91.10;;;;;;4902420;29;20087;-74
2022/09/10 00:26:24;;;;;;;0.25;0.00;;;24.60;90.70;;;;;;4901566;29;20756;-77
2022/09/10 00:28:55;;;;;;;1.13;0.10;;;24.70;90.80;;;;;;4896066;29;20396;-75
2022/09/10 00:31:26;;;;;;;6.10;0.75;;;24.70;90.00;;;;;;4895156;29;20119;-77
2022/09/10 00:33:54;;;;;;;0.40;0.20;;;24.20;90.50;;;;;;4901751;29;20543;-76
2022/09/10 00:36:31;;;;;;;0.10;0.00;;;24.00;91.50;;;;;;4894564;29;20050;-76
2022/09/10 00:39:02;;;;;;;1.20;0.00;;;24.40;89.00;;;;;;4893268;29;20059;-77
2022/09/10 00:41:30;;;;;;;0.00;0.00;;;24.20;87.50;;;;;;4896896;29;20028;-76
2022/09/10 00:44:01;;;;;;;0.00;0.00;;;23.90;89.80;;;;;;4899676;29;20120;-74
2022/09/10 00:46:31;;;;;;;0.10;0.00;;;23.70;89.20;;;;;;4896375;29;20099;-78
2022/09/10 00:49:02;;;;;;;0.00;0.00;;;23.30;90.10;;;;;;4898362;29;20099;-74
2022/09/10 00:51:33;;;;;;;1.85;0.10;;;22.80;89.30;;;;;;4895915;29;20031;-77
2022/09/10 00:54:02;;;;;;;1.00;0.15;;;22.40;90.80;;;;;;4896579;29;20720;-74
2022/09/10 00:56:30;;;;;;;0.60;0.10;;;21.90;90.90;;;;;;4895900;29;20051;-77
2022/09/10 00:58:58;;;;;;;0.70;0.10;;;21.40;91.40;;;;;;4892299;29;20454;-72
2022/09/10 01:01:25;;;;;;;0.35;0.10;;;21.40;92.10;;;;;;4897059;29;20064;-74
2022/09/10 01:03:53;;;;;;;0.20;0.00;;;21.50;91.40;;;;;;4894649;29;20054;-74
2022/09/10 01:06:22;;;;;;;0.20;0.00;;;21.40;91.30;;;;;;4897917;29;20524;-74
2022/09/10 01:08:50;;;;;;;0.10;0.10;;;21.80;91.60;;;;;;4896514;29;20028;-73
2022/09/10 01:11:26;;;;;;;0.28;0.03;;;23.20;91.30;;;;;;4894183;29;20071;-73
2022/09/10 01:14:16;;;;;;;1.10;0.10;;;23.90;90.20;;;;;;4895325;29;20063;-75
2022/09/10 01:17:11;;;;;;;0.10;0.00;;;24.40;88.40;;;;;;4894895;29;20025;-76
2022/09/10 01:20:10;;;;;;;0.22;0.00;;;25.30;87.50;;;;;;4885844;29;20036;-74
2022/09/10 01:23:13;;;;;;;0.08;0.08;;;26.30;85.30;;;;;;4905076;29;20344;-76
2022/09/10 01:25:50;;;;;;;0.10;0.00;;;26.60;83.30;;;;;;4898714;29;20054;-74
2022/09/10 01:28:55;;;;;;;0.40;0.00;;;26.50;82.50;;;;;;4895649;29;20156;-77
2022/09/10 01:31:30;;;;;;;0.55;0.08;;;26.00;83.40;;;;;;4893542;29;20548;-73
2022/09/10 01:34:25;;;;;;;0.03;0.00;;;25.60;84.20;;;;;;4896291;29;20067;-73
2022/09/10 01:36:58;;;;;;;0.30;0.00;;;25.90;83.10;;;;;;4891521;29;20059;-74
2022/09/10 01:39:26;;;;;;;0.17;0.10;;;25.90;83.80;;;;;;4892584;29;20450;-75
2022/09/10 01:41:54;;;;;;;0.10;0.10;;;25.10;84.10;;;;;;4900314;29;20546;-75
2022/09/10 01:44:46;;;;;;;0.30;0.10;;;25.20;85.70;;;;;;4899906;29;20063;-73
2022/09/10 01:47:38;;;;;;;0.10;0.00;;;25.50;82.60;;;;;;4903428;29;20028;-74
2022/09/10 01:50:30;;;;;;;0.00;0.00;;;25.80;83.90;;;;;;4897462;29;20036;-75
2022/09/10 01:53:16;;;;;;;0.10;0.00;;;26.10;82.90;;;;;;4897696;29;20028;-73
2022/09/10 01:55:52;;;;;;;0.10;0.00;;;26.00;80.30;;;;;;4898299;29;20124;-75
2022/09/10 01:58:39;;;;;;;0.00;0.00;;;25.40;80.90;;;;;;4901122;29;20028;-75
2022/09/10 02:01:23;;;;;;;0.10;0.00;;;24.90;81.80;;;;;;4900178;29;20076;-74
2022/09/10 02:03:55;;;;;;;0.30;0.20;;;25.00;81.80;;;;;;4903801;29;20112;-77
2022/09/10 02:06:28;;;;;;;0.60;0.08;;;25.70;82.60;;;;;;4897863;29;20048;-78
2022/09/10 02:08:58;;;;;;;0.63;0.10;;;26.20;81.90;;;;;;4900684;29;20488;-74
2022/09/10 02:11:26;;;;;;;0.00;0.00;;;26.10;81.20;;;;;;4900231;29;20088;-77
2022/09/10 02:13:54;;;;;;;0.10;0.00;;;25.20;82.40;;;;;;4896785;29;20024;-74
2022/09/10 02:16:30;;;;;;;0.32;0.00;;;24.70;81.80;;;;;;4894569;29;20049;-73
2022/09/10 02:19:00;;;;;;;0.00;0.00;;;24.50;83.60;;;;;;4899119;29;20028;-75
2022/09/10 02:21:28;;;;;;;0.15;0.00;;;24.20;84.80;;;;;;4894714;29;20078;-74
2022/09/10 02:24:14;;;;;;;2.22;0.00;;;24.00;85.00;;;;;;4907636;29;20052;-76
2022/09/10 02:26:43;;;;;;;0.22;0.00;;;23.60;82.30;;;;;;4905697;29;20036;-75
2022/09/10 02:29:13;;;;;;;0.00;0.00;;;23.10;83.80;;;;;;4909324;29;20051;-73
2022/09/10 02:31:42;;;;;;;0.03;0.00;;;23.00;85.90;;;;;;4910657;29;20049;-74
2022/09/10 02:34:10;;;;;;;0.05;0.00;;;23.20;88.30;;;;;;4909557;29;20130;-75
2022/09/10 02:36:38;;;;;;;0.08;0.00;;;23.50;88.80;;;;;;4912514;29;20400;-78
2022/09/10 02:39:06;;;;;;;0.30;0.10;;;24.30;86.20;;;;;;4909592;29;20092;-79
2022/09/10 02:41:34;;;;;;;0.45;0.15;;;24.40;84.90;;;;;;4909125;29;20047;-77
2022/09/10 02:44:02;;;;;;;0.47;0.20;;;24.40;85.80;;;;;;4912288;29;20036;-78
2022/09/10 02:46:30;;;;;;;0.22;0.00;;;24.20;85.40;;;;;;4903575;29;20035;-77
2022/09/10 02:48:57;;;;;;;0.10;0.10;;;24.70;85.70;;;;;;4906882;29;20028;-79
2022/09/10 02:51:26;;;;;;;0.00;0.00;;;25.60;85.00;;;;;;4914688;29;20032;-78
2022/09/10 02:53:54;;;;;;;0.00;0.00;;;26.10;83.30;;;;;;4915533;29;20130;-81
2022/09/10 02:56:22;;;;;;;0.80;0.32;;;26.70;84.50;;;;;;4913395;29;20028;-82
2022/09/10 02:58:50;;;;;;;0.00;0.00;;;27.10;80.30;;;;;;4915052;29;20104;-79
2022/09/10 03:01:20;;;;;;;0.20;0.00;;;26.90;79.20;;;;;;4903217;29;20040;-76
2022/09/10 03:03:53;;;;;;;0.08;0.00;;;26.40;80.00;;;;;;4915423;29;20061;-76
2022/09/10 03:06:22;;;;;;;0.05;0.00;;;26.00;79.20;;;;;;4910827;29;20078;-79
2022/09/10 03:08:51;;;;;;;0.08;0.08;;;25.70;82.40;;;;;;4898369;29;20032;-82
2022/09/10 03:11:21;;;;;;;0.00;0.00;;;25.60;81.30;;;;;;4896118;29;20092;-81
2022/09/10 03:13:49;;;;;;;0.43;0.10;;;25.80;82.10;;;;;;4906137;29;20104;-80
2022/09/10 03:16:17;;;;;;;0.05;0.00;;;25.90;80.90;;;;;;4892303;29;20508;-79
2022/09/10 03:18:45;;;;;;;0.30;0.00;;;26.10;79.50;;;;;;4906720;29;20048;-76
2022/09/10 03:21:21;;;;;;;0.10;0.10;;;26.10;80.80;;;;;;4920189;29;20134;-78
2022/09/10 03:23:51;;;;;;;0.28;0.10;;;26.20;80.20;;;;;;4923800;29;20430;-75
2022/09/10 03:26:20;;;;;;;0.13;0.00;;;25.80;79.40;;;;;;4914706;29;20026;-83
2022/09/10 03:28:48;;;;;;;1.33;0.10;;;25.90;81.10;;;;;;4910556;29;20042;-77
2022/09/10 03:31:17;;;;;;;0.05;0.00;;;26.10;81.20;;;;;;4897501;29;20055;-79
2022/09/10 03:33:45;;;;;;;0.00;0.00;;;26.30;82.00;;;;;;4909960;29;20052;-76
2022/09/10 03:36:12;;;;;;;0.03;0.00;;;26.20;81.20;;;;;;4911013;29;20044;-81
2022/09/10 03:38:40;;;;;;;0.00;0.00;;;26.30;81.70;;;;;;4910557;29;20743;-75
2022/09/10 03:41:08;;;;;;;0.00;0.00;;;25.60;80.00;;;;;;4910435;29;20522;-79
2022/09/10 03:43:36;;;;;;;0.20;0.00;;;24.80;81.40;;;;;;4912910;29;20036;-77
2022/09/10 03:46:04;;;;;;;0.93;0.00;;;24.40;83.30;;;;;;4912717;29;20525;-82
2022/09/10 03:48:31;;;;;;;0.45;0.00;;;24.00;83.30;;;;;;4913312;29;20487;-82
2022/09/10 03:50:59;;;;;;;0.22;0.17;;;24.00;82.40;;;;;;4911080;29;20038;-78
2022/09/10 03:53:27;;;;;;;0.17;0.00;;;24.70;80.70;;;;;;4900929;29;20032;-79
2022/09/10 03:55:55;;;;;;;0.00;0.00;;;25.20;80.80;;;;;;4904920;29;20028;-75
2022/09/10 03:58:22;;;;;;;0.00;0.00;;;25.90;79.70;;;;;;4912927;29;20267;-78
2022/09/10 04:00:50;;;;;;;0.88;0.00;;;26.20;79.10;;;;;;4915977;29;20025;-76
2022/09/10 04:03:19;;;;;;;0.20;0.00;;;26.00;78.10;;;;;;4903765;29;20067;-76
2022/09/10 04:05:46;;;;;;;0.13;0.00;;;25.40;78.00;;;;;;4910582;29;20032;-78
2022/09/10 04:08:15;;;;;;;0.05;0.00;;;25.10;78.60;;;;;;4911063;29;20095;-77
2022/09/10 04:10:43;;;;;;;0.00;0.00;;;25.30;77.70;;;;;;4912753;29;20052;-77
2022/09/10 04:13:11;;;;;;;0.00;0.00;;;24.90;79.00;;;;;;4911610;29;20043;-77
2022/09/10 04:15:39;;;;;;;0.10;0.00;;;24.70;79.20;;;;;;4909802;29;20079;-82
2022/09/10 04:18:08;;;;;;;0.20;0.05;;;24.40;80.10;;;;;;4912866;29;20482;-76
2022/09/10 04:20:37;;;;;;;0.03;0.00;;;24.40;80.10;;;;;;4910102;29;20113;-79
2022/09/10 04:23:04;;;;;;;0.00;0.00;;;24.60;80.70;;;;;;4914281;29;20040;-78
2022/09/10 04:25:32;;;;;;;0.40;0.00;;;24.50;79.20;;;;;;4902116;29;20036;-77
2022/09/10 04:28:00;;;;;;;0.00;0.00;;;24.80;81.80;;;;;;4912938;29;20041;-75
2022/09/10 04:30:28;;;;;;;1.38;0.00;;;25.10;80.10;;;;;;4914953;29;20048;-76
2022/09/10 04:32:55;;;;;;;1.45;0.08;;;25.00;79.30;;;;;;4914810;29;20052;-77
2022/09/10 04:35:23;;;;;;;0.10;0.00;;;24.90;79.90;;;;;;4900183;29;20041;-79
2022/09/10 04:37:50;;;;;;;0.20;0.00;;;24.40;79.90;;;;;;4914761;29;20079;-79
2022/09/10 04:40:18;;;;;;;0.05;0.00;;;24.00;80.10;;;;;;4910375;29;20028;-79
2022/09/10 04:42:46;;;;;;;0.00;0.00;;;24.00;80.90;;;;;;4914074;29;20116;-81
2022/09/10 04:45:14;;;;;;;0.20;0.10;;;24.20;79.60;;;;;;4907588;29;20595;-76
2022/09/10 04:47:41;;;;;;;0.75;0.10;;;24.40;79.40;;;;;;4903432;29;20483;-79
2022/09/10 04:50:17;;;;;;;0.15;0.00;;;24.90;80.40;;;;;;4881996;29;20032;-75
2022/09/10 04:52:45;;;;;;;0.00;0.00;;;24.90;79.80;;;;;;4912798;29;20028;-78
2022/09/10 04:55:12;;;;;;;0.00;0.00;;;24.60;79.30;;;;;;4902375;29;20033;-81
2022/09/10 04:57:41;;;;;;;0.00;0.00;;;24.40;80.00;;;;;;4908825;29;20123;-83
2022/09/10 05:00:09;;;;;;;0.00;0.00;;;24.20;81.60;;;;;;4912043;29;20032;-84
2022/09/10 05:02:36;;;;;;;0.00;0.00;;;24.30;83.50;;;;;;4918471;29;20058;-79
2022/09/10 05:05:04;;;;;;;0.00;0.00;;;24.10;87.00;;;;;;4913000;29;20036;-84
2022/09/10 05:07:31;;;;;;;0.00;0.00;;;23.80;89.70;;;;;;4909371;29;21727;-80
2022/09/10 05:10:00;;;;;;;0.22;0.00;;;23.40;89.20;;;;;;4902176;29;20360;-79
2022/09/10 05:12:28;;;;;;;0.00;0.00;;;23.30;91.00;;;;;;4895392;29;20039;-78
2022/09/10 05:14:55;;;;;;;0.10;0.00;;;23.10;90.60;;;;;;4917050;29;20036;-83
2022/09/10 05:17:23;;;;;;;0.00;0.00;;;23.30;90.50;;;;;;4912158;29;20783;-84
2022/09/10 05:19:50;;;;;;;0.40;0.00;;;23.50;89.50;;;;;;4911836;29;20438;-77
2022/09/10 05:22:18;;;;;;;0.20;0.03;;;23.80;89.30;;;;;;4914781;29;20055;-81
2022/09/10 05:24:48;;;;;;;0.10;0.10;;;24.20;87.90;;;;;;4910594;29;20048;-82
2022/09/10 05:27:15;;;;;;;0.10;0.10;;;24.40;88.00;;;;;;4913790;29;20439;-80
2022/09/10 05:29:43;;;;;;;0.05;0.00;;;24.70;86.30;;;;;;4908238;29;20130;-79
2022/09/10 05:32:12;;;;;;;0.00;0.00;;;24.90;85.50;;;;;;4898393;29;20116;-85
2022/09/10 05:34:40;;;;;;;0.15;0.00;;;24.90;83.90;;;;;;4912611;29;20127;-80
2022/09/10 05:37:13;;;;;;;0.00;0.00;;;25.00;84.20;;;;;;4912718;29;20040;-83
2022/09/10 05:39:41;;;;;;;0.00;0.00;;;24.90;82.80;;;;;;4912536;29;20024;-81
2022/09/10 05:42:09;;;;;;;0.50;0.08;;;24.60;82.50;;;;;;4911887;29;20034;-83
2022/09/10 05:44:36;;;;;;;0.22;0.05;;;24.20;82.70;;;;;;4910878;29;20032;-80
2022/09/10 05:47:05;;;;;;;0.28;0.28;;;23.90;81.80;;;;;;4910095;29;20040;-80
2022/09/10 05:49:33;;;;;;;0.00;0.00;;;23.60;81.60;;;;;;4914371;29;20036;-85
2022/09/10 05:52:00;;;;;;;0.20;0.00;;;23.30;82.90;;;;;;4896972;29;20195;-81
2022/09/10 05:54:27;;;;;;;0.10;0.00;;;23.20;83.60;;;;;;4904087;29;20028;-83
2022/09/10 05:56:57;;;;;;;0.00;0.00;;;23.30;84.40;;;;;;4898254;29;20472;-78
2022/09/10 05:59:28;;;;;;;0.00;0.00;;;23.30;83.90;;;;;;4910995;29;20020;-78
2022/09/10 06:01:56;;;;;;;0.00;0.00;;;23.20;84.70;;;;;;4908166;29;20476;-81
2022/09/10 06:04:24;;;;;;;0.55;0.00;;;23.30;84.90;;;;;;4910915;29;20042;-85
2022/09/10 06:06:52;;;;;;;0.00;0.00;;;23.40;84.50;;;;;;4898330;29;20047;-83
2022/09/10 06:09:20;;;;;;;0.00;0.00;;;23.40;83.60;;;;;;4910171;29;20526;-80
2022/09/10 06:11:51;;;;;;;0.08;0.00;;;23.40;83.90;;;;;;4911390;29;20050;-83
2022/09/10 06:14:19;;;;;;;0.13;0.00;;;23.50;85.20;;;;;;4913176;29;20198;-80
2022/09/10 06:16:48;;;;;;;0.00;0.00;;;23.60;84.80;;;;;;4907638;29;20020;-78
2022/09/10 06:19:15;;;;;;;0.00;0.00;;;23.70;83.50;;;;;;4907523;29;20107;-77
2022/09/10 06:21:44;;;;;;;0.00;0.00;;;23.60;83.50;;;;;;4904774;29;20111;-76
2022/09/10 06:24:15;;;;;;;0.00;0.00;;;23.50;83.90;;;;;;4909043;29;20032;-76
2022/09/10 06:26:43;;;;;;;0.20;0.10;;;23.50;84.20;;;;;;4915001;29;20062;-76
2022/09/10 06:29:10;;;;;;;0.00;0.00;;;23.40;83.80;;;;;;4910704;29;20032;-77
2022/09/10 06:31:37;;;;;;;0.00;0.00;;;23.30;85.20;;;;;;4913695;29;20036;-79
2022/09/10 06:34:05;;;;;;;0.00;0.00;;;23.20;84.60;;;;;;4908057;29;20091;-77
2022/09/10 06:36:32;;;;;;;0.00;0.00;;;23.00;85.40;;;;;;4906761;29;20032;-79
2022/09/10 06:39:02;;;;;;;0.00;0.00;;;22.70;85.50;;;;;;4909521;29;20024;-79
2022/09/10 06:41:29;;;;;;;1.02;0.00;;;22.50;85.90;;;;;;4911614;29;20055;-76
2022/09/10 06:43:57;;;;;;;0.00;0.00;;;22.20;86.30;;;;;;4911479;29;20063;-80
2022/09/10 06:46:28;;;;;;;0.00;0.00;;;22.10;87.20;;;;;;4916458;29;20494;-81
2022/09/10 06:48:59;;;;;;;0.00;0.00;;;22.00;87.60;;;;;;4912978;29;20435;-77
2022/09/10 06:51:28;;;;;;;0.00;0.00;;;21.80;87.80;;;;;;4890814;29;20463;-80
2022/09/10 06:53:59;;;;;;;1.40;0.00;;;21.70;88.40;;;;;;4911838;29;20383;-77
2022/09/10 06:56:27;;;;;;;0.05;0.00;;;21.50;88.50;;;;;;4896887;29;20436;-77
2022/09/10 06:58:58;;;;;;;0.00;0.00;;;21.40;88.30;;;;;;4916670;29;20044;-79
2022/09/10 07:01:28;;;;;;;1.45;0.10;;;21.30;88.40;;;;;;4913428;29;20032;-79
2022/09/10 07:04:00;;;;;;;0.15;0.00;;;21.20;88.30;;;;;;4914043;29;20028;-77
2022/09/10 07:06:37;;;;;;;0.00;0.00;;;21.20;88.00;;;;;;4909569;29;20028;-77
2022/09/10 07:09:05;;;;;;;0.20;0.00;;;21.20;88.70;;;;;;4912849;29;20352;-80
2022/09/10 07:11:33;;;;;;;0.10;0.00;;;21.20;88.40;;;;;;4908327;29;20063;-79
2022/09/10 07:14:01;;;;;;;2.00;0.10;;;21.10;88.70;;;;;;4911473;29;20402;-77
2022/09/10 07:16:28;;;;;;;0.32;0.00;;;21.00;87.90;;;;;;4916404;29;20040;-79
2022/09/10 07:18:58;;;;;;;0.57;0.40;;;20.80;87.90;;;;;;4910352;29;20036;-79
2022/09/10 07:21:27;;;;;;;1.02;0.10;;;20.70;88.70;;;;;;4911134;29;20454;-80
2022/09/10 07:24:01;;;;;;;0.10;0.08;;;20.60;88.50;;;;;;4910949;29;20040;-79
2022/09/10 07:26:29;;;;;;;0.40;0.28;;;20.60;89.00;;;;;;4908886;29;20040;-80
2022/09/10 07:28:58;;;;;;;0.30;0.10;;;20.50;89.20;;;;;;4912623;29;20499;-77
2022/09/10 07:31:33;;;;;;;0.25;0.13;;;20.40;89.50;;;;;;4908424;29;20632;-78
2022/09/10 07:34:04;;;;;;;0.32;0.20;;;20.30;89.70;;;;;;4910861;29;20063;-79
2022/09/10 07:36:32;;;;;;;0.52;0.20;;;20.20;90.00;;;;;;4909959;29;20388;-80
2022/09/10 07:39:03;;;;;;;0.90;0.20;;;20.20;90.20;;;;;;4911088;29;20122;-77
2022/09/10 07:41:34;;;;;;;1.02;0.22;;;20.20;90.10;;;;;;4908270;29;20091;-77
2022/09/10 07:44:01;;;;;;;1.05;0.10;;;20.10;90.50;;;;;;4912982;29;20040;-79
2022/09/10 07:46:29;;;;;;;0.50;0.20;;;20.10;90.80;;;;;;4908826;29;20020;-79
2022/09/10 07:48:58;;;;;;;0.20;0.10;;;20.10;91.10;;;;;;4913947;29;20152;-80
2022/09/10 07:51:28;;;;;;;0.63;0.20;;;20.00;91.30;;;;;;4907091;29;20087;-80
2022/09/10 07:53:57;;;;;;;0.70;0.17;;;20.00;91.30;;;;;;4907760;29;20137;-81
2022/09/10 07:56:24;;;;;;;0.30;0.17;;;19.90;91.40;;;;;;4909355;29;20071;-78
2022/09/10 07:58:56;;;;;;;0.47;0.20;;;19.80;91.60;;;;;;4905876;29;20035;-79
2022/09/10 08:01:24;;;;;;;0.10;0.10;;;19.70;91.70;;;;;;4907601;29;20051;-78
2022/09/10 08:03:55;;;;;;;1.88;0.20;;;19.60;91.80;;;;;;4910835;29;20428;-76
2022/09/10 08:06:22;;;;;;;3.10;1.92;;;19.60;91.80;;;;;;4898414;29;20649;-76
2022/09/10 08:08:50;;;;;;;7.28;3.35;;;19.60;91.90;;;;;;4903968;29;20024;-76
2022/09/10 08:11:19;;;;;;;3.97;1.52;;;19.50;92.00;;;;;;4900623;29;20059;-77
2022/09/10 08:13:49;;;;;;;1.60;0.90;;;19.40;92.00;;;;;;4907902;29;20032;-79
2022/09/10 08:16:25;;;;;;;2.50;0.90;;;19.40;92.10;;;;;;4906710;29;20439;-78
2022/09/10 08:18:59;;;;;;;1.35;1.08;;;19.30;92.50;;;;;;4907557;29;20043;-78
2022/09/10 08:21:29;;;;;;;0.90;0.50;;;19.20;92.60;;;;;;4900893;29;20432;-77
2022/09/10 08:23:56;;;;;;;1.05;0.55;;;19.10;92.70;;;;;;4903651;29;20040;-77
2022/09/10 08:26:25;;;;;;;1.25;0.50;;;19.10;92.70;;;;;;4901291;29;20024;-79
2022/09/10 08:28:54;;;;;;;2.25;0.40;;;19.00;92.80;;;;;;4903902;29;20036;-78
2022/09/10 08:31:23;;;;;;;0.43;0.20;;;18.90;93.30;;;;;;4900493;29;20115;-77
2022/09/10 08:33:53;;;;;;;1.23;0.60;;;18.90;93.20;;;;;;4905459;29;20028;-77
2022/09/10 08:36:24;;;;;;;1.83;1.23;;;18.80;93.40;;;;;;4902674;29;20154;-75
2022/09/10 08:38:53;;;;;;;1.38;0.90;;;18.80;93.50;;;;;;4902051;29;20039;-77
2022/09/10 08:41:39;;;;;;;1.90;1.10;;;18.80;93.80;;;;;;4886342;29;20024;-77
2022/09/10 08:44:32;;;;;;;3.05;1.05;;;18.70;94.20;;;;;;4905520;29;20184;-78
2022/09/10 08:47:24;;;;;;;1.00;0.60;;;18.60;94.20;;;;;;4893548;29;20092;-77
2022/09/10 08:49:55;;;;;;;0.95;0.55;;;18.60;94.40;;;;;;4907127;29;20383;-76
2022/09/10 08:52:47;;;;;;;1.95;0.70;;;18.50;94.20;;;;;;4901845;29;20566;-75
2022/09/10 08:55:17;;;;;;;1.83;0.73;;;18.50;94.20;;;;;;4900823;29;20048;-78
2022/09/10 08:57:55;;;;;;;2.42;1.35;;;18.50;94.00;;;;;;4903637;29;20024;-75
2022/09/10 09:00:33;;;;;;;0.93;0.52;;;18.50;93.70;;;;;;4901566;29;20036;-77
2022/09/10 09:03:12;;;;;;;1.00;0.70;;;18.50;93.70;;;;;;4904006;29;20039;-77
2022/09/10 09:05:50;;;;;;;1.10;0.32;;;18.50;93.90;;;;;;4898499;29;20036;-78
2022/09/10 09:08:26;;;;;;;1.27;0.60;;;18.40;93.90;;;;;;4901107;29;20040;-77
2022/09/10 09:11:14;;;;;;;1.23;0.50;;;18.40;94.10;;;;;;4899940;29;20055;-77
2022/09/10 09:13:49;;;;;;;1.48;0.60;;;18.30;94.00;;;;;;4906737;29;20103;-77
2022/09/10 09:16:19;;;;;;;1.08;0.52;;;18.20;94.20;;;;;;4906077;29;20035;-78
2022/09/10 09:19:01;;;;;;;1.27;0.43;;;18.20;94.50;;;;;;4899634;29;20420;-75
2022/09/10 09:21:34;;;;;;;1.10;0.70;;;18.20;94.30;;;;;;4903198;29;20480;-76
2022/09/10 09:24:09;;;;;;;3.50;0.32;;;18.10;94.40;;;;;;4901723;29;20042;-77
2022/09/10 09:26:37;;;;;;;2.03;0.90;;;18.00;94.80;;;;;;4886330;29;20028;-77
2022/09/10 09:29:27;;;;;;;2.05;0.93;;;17.90;95.50;;;;;;4902407;29;20032;-75
2022/09/10 09:31:59;;;;;;;1.80;0.80;;;17.70;95.50;;;;;;4902830;29;20034;-77
2022/09/10 09:34:31;;;;;;;1.15;0.60;;;17.60;95.60;;;;;;4901626;29;20035;-77
2022/09/10 09:37:03;;;;;;;2.17;0.57;;;17.50;95.70;;;;;;4901750;29;20139;-78
2022/09/10 09:39:52;;;;;;;2.45;0.90;;;17.40;96.00;;;;;;4903676;29;20483;-75
2022/09/10 09:42:37;;;;;;;2.97;1.83;;;17.30;95.80;;;;;;4903736;29;20042;-75
2022/09/10 09:45:16;;;;;;;1.83;1.40;;;17.30;95.80;;;;;;4903120;29;20458;-77
2022/09/10 09:47:45;;;;;;;3.70;2.55;;;17.20;96.00;;;;;;4901214;29;20040;-77
2022/09/10 09:50:13;;;;;;;6.50;3.15;;;17.10;96.30;;;;;;4904791;29;20158;-76
2022/09/10 09:52:42;;;;;;;2.08;1.60;;;17.10;96.70;;;;;;4900251;29;20028;-78
2022/09/10 09:55:27;;;;;;;1.35;0.93;;;17.00;96.60;;;;;;4900899;29;20187;-77
2022/09/10 09:58:19;;;;;;;1.58;0.90;;;16.90;96.70;;;;;;4899914;29;20153;-75
2022/09/10 10:00:49;;;;;;;1.88;0.65;;;16.90;96.80;;;;;;4905933;29;20040;-77
2022/09/10 10:03:30;;;;;;;0.25;0.20;;;16.80;97.10;;;;;;4911372;29;20032;-77
2022/09/10 10:06:07;;;;;;;2.22;1.05;;;17.00;96.40;;;;;;4903761;29;20100;-77
2022/09/10 10:08:42;;;;;;;1.48;0.50;;;17.00;96.40;;;;;;4906225;29;20039;-77
2022/09/10 10:11:15;;;;;;;0.75;0.30;;;17.00;96.80;;;;;;4905951;29;20120;-77
2022/09/10 10:13:44;;;;;;;2.70;0.80;;;17.00;96.80;;;;;;4905620;29;20038;-76
2022/09/10 10:16:35;;;;;;;1.40;0.70;;;17.00;96.70;;;;;;4908560;29;20479;-77
2022/09/10 10:19:02;;;;;;;2.92;1.00;;;16.90;96.80;;;;;;4905616;29;20087;-78
2022/09/10 10:21:32;;;;;;;3.75;1.35;;;16.90;96.90;;;;;;4905872;29;20036;-76
2022/09/10 10:24:00;;;;;;;2.50;1.00;;;16.90;97.20;;;;;;4901968;29;20116;-74
2022/09/10 10:26:35;;;;;;;2.17;0.82;;;16.80;97.10;;;;;;4906193;29;20042;-76
2022/09/10 10:29:19;;;;;;;1.80;0.83;;;16.80;97.20;;;;;;4907678;29;20891;-75
2022/09/10 10:31:48;;;;;;;2.17;0.82;;;16.70;97.30;;;;;;4905816;29;20047;-76
2022/09/10 10:34:39;;;;;;;1.17;0.70;;;16.60;97.60;;;;;;4905433;29;20122;-76
2022/09/10 10:37:15;;;;;;;1.30;0.90;;;16.60;97.50;;;;;;4894504;29;20050;-76
2022/09/10 10:40:00;;;;;;;1.85;1.00;;;16.60;97.60;;;;;;4905078;29;20281;-74
2022/09/10 10:42:40;;;;;;;2.78;1.10;;;16.50;98.30;;;;;;4905261;29;20063;-80
2022/09/10 10:45:31;;;;;;;2.95;2.08;;;16.30;98.70;;;;;;4903649;29;20043;-78
2022/09/10 10:48:11;;;;;;;3.58;1.13;;;16.20;99.00;;;;;;4902799;29;20036;-75
2022/09/10 10:51:06;;;;;;;1.67;1.08;;;16.00;98.90;;;;;;4897803;29;20033;-72
2022/09/10 10:54:03;;;;;;;3.67;1.45;;;15.90;99.20;;;;;;4883372;29;20037;-71
2022/09/10 10:57:00;;;;;;;1.95;1.05;;;15.80;99.20;;;;;;4902434;29;20043;-73
2022/09/10 10:59:48;;;;;;;2.85;1.33;;;15.80;99.40;;;;;;4903946;29;20044;-71
2022/09/10 11:02:39;;;;;;;4.13;1.58;;;15.70;99.60;;;;;;4904873;29;20407;-71
2022/09/10 11:05:34;;;;;;;2.00;1.40;;;15.60;99.90;;;;;;4903720;29;20044;-70
2022/09/10 11:08:35;;;;;;;2.58;1.52;;;15.60;99.90;;;;;;4903252;29;20040;-71
2022/09/10 11:11:12;;;;;;;3.42;1.30;;;15.50;99.90;;;;;;4902576;29;20531;-76
2022/09/10 11:13:39;;;;;;;2.25;1.40;;;15.50;99.90;;;;;;4909371;29;20039;-73
2022/09/10 11:16:40;;;;;;;2.33;1.00;;;15.40;99.90;;;;;;4902808;29;20032;-75
2022/09/10 11:20:08;;;;;;;2.30;1.50;;;15.40;99.90;;;;;;4904350;29;20059;-73
2022/09/10 11:22:55;;;;;;;;;;;15.30;99.90;;;;;;4814021;29;20075;-78
2022/09/10 11:25:38;;;;;;;1.92;1.17;;;15.30;99.90;;;;;;4860348;29;20290;-79
2022/09/10 11:28:46;;;;;;;1.23;1.10;;;15.20;99.90;;;;;;4905415;29;20460;-77
2022/09/10 11:31:36;;;;;;;5.55;1.35;;;15.10;99.90;;;;;;4876268;29;20051;-76
2022/09/10 11:34:25;;;;;;;3.13;1.52;;;15.00;99.90;;;;;;4903660;29;20033;-75
2022/09/10 11:37:02;;;;;;;5.60;2.20;;;15.00;99.90;;;;;;4903151;29;20036;-75
2022/09/10 11:39:37;;;;;;;1.42;1.05;;;14.90;99.90;;;;;;4905043;29;20033;-77
2022/09/10 11:42:22;;;;;;;1.75;1.10;;;14.80;99.90;;;;;;4905459;29;20429;-76
2022/09/10 11:45:08;;;;;;;1.77;0.95;;;14.70;99.90;;;;;;4903112;29;20036;-77
2022/09/10 11:47:42;;;;;;;3.30;1.20;;;14.60;99.90;;;;;;4904103;29;20021;-76
2022/09/10 11:50:22;;;;;;;1.90;1.23;;;14.60;99.90;;;;;;4902365;29;20754;-80
2022/09/10 11:52:49;;;;;;;2.20;0.95;;;14.60;99.90;;;;;;4903239;29;20630;-76
2022/09/10 11:55:17;;;;;;;1.92;1.15;;;14.60;99.90;;;;;;4901314;29;20024;-76
2022/09/10 11:58:05;;;;;;;2.95;1.33;;;14.70;99.90;;;;;;4899839;29;20372;-74
2022/09/10 12:00:41;;;;;;;3.88;2.15;;;14.70;99.90;;;;;;4903495;29;20127;-74
2022/09/10 12:03:38;;;;;;;2.20;1.52;;;14.80;99.90;;;;;;4905853;29;20119;-75
2022/09/10 12:06:22;;;;;;;;;;;14.80;99.90;;;;;;4903718;29;20048;-77
2022/09/10 12:09:28;;;;;;;1.60;1.00;;;14.80;99.90;;;;;;4904449;29;19915;-75
2022/09/10 12:12:12;;;;;;;1.75;1.20;;;14.80;99.90;;;;;;4862436;29;20422;-74
2022/09/10 12:14:41;;;;;;;6.18;1.25;;;14.80;99.90;;;;;;4903034;29;20040;-75
2022/09/10 12:17:18;;;;;;;2.85;1.05;;;14.80;99.90;;;;;;4904573;29;20024;-74
2022/09/10 12:19:50;;;;;;;2.25;1.30;;;14.80;99.90;;;;;;4903623;29;20036;-74
2022/09/10 12:22:40;;;;;;;2.38;1.40;;;14.70;99.90;;;;;;4902481;29;20028;-74
2022/09/10 12:25:24;;;;;;;0.98;0.88;;;14.70;99.90;;;;;;4901706;29;20056;-74
2022/09/10 12:28:00;;;;;;;1.05;0.65;;;14.60;99.90;;;;;;4902340;29;20369;-74
2022/09/10 12:30:32;;;;;;;0.82;0.50;;;14.50;99.90;;;;;;4903992;29;20086;-74
2022/09/10 12:33:13;;;;;;;0.50;0.40;;;14.40;99.90;;;;;;4904228;29;20036;-73
2022/09/10 12:35:46;;;;;;;1.23;0.60;;;14.40;99.90;;;;;;4912478;29;20063;-75
2022/09/10 12:38:44;;;;;;;0.85;0.40;;;14.40;99.90;;;;;;4908869;29;20031;-75
2022/09/10 12:41:21;;;;;;;1.10;0.40;;;14.30;99.90;;;;;;4905868;29;20032;-75
2022/09/10 12:43:48;;;;;;;1.05;0.60;;;14.20;99.90;;;;;;4904362;29;20032;-74
2022/09/10 12:46:17;;;;;;;1.20;0.85;;;14.20;99.90;;;;;;4902298;29;20174;-73
2022/09/10 12:48:50;;;;;;;3.35;0.63;;;14.10;99.90;;;;;;4900745;29;20561;-73
2022/09/10 12:51:18;;;;;;;2.15;1.17;;;14.10;99.90;;;;;;4903233;29;20048;-75
2022/09/10 12:54:09;;;;;;;2.15;0.70;;;14.20;99.90;;;;;;4903517;29;20042;-74
2022/09/10 12:56:56;;;;;;;2.67;1.25;;;14.10;99.90;;;;;;4906870;29;20040;-73
2022/09/10 12:59:29;;;;;;;1.75;0.85;;;14.10;99.90;;;;;;4901634;29;20032;-73
2022/09/10 13:01:57;;;;;;;1.13;0.80;;;14.10;99.90;;;;;;4910908;29;20063;-74
2022/09/10 13:04:35;;;;;;;1.63;0.50;;;14.00;99.90;;;;;;4901862;29;20067;-74
2022/09/10 13:07:26;;;;;;;1.08;0.60;;;14.00;99.90;;;;;;4902483;29;20028;-74
2022/09/10 13:10:22;;;;;;;1.17;0.68;;;14.00;99.90;;;;;;4900452;29;20103;-73
2022/09/10 13:13:03;;;;;;;2.28;0.90;;;13.90;99.90;;;;;;4901445;29;20487;-74
2022/09/10 13:15:37;;;;;;;1.92;1.17;;;13.90;99.90;;;;;;4904314;29;20385;-74
2022/09/10 13:18:35;;;;;;;1.67;1.33;;;13.90;99.90;;;;;;4901458;29;20131;-73
2022/09/10 13:21:24;;;;;;;1.23;0.70;;;13.80;99.90;;;;;;4882067;29;20040;-74
2022/09/10 13:23:58;;;;;;;2.08;0.98;;;13.70;99.90;;;;;;4903831;29;20040;-72